createdAt,value
2023-09-11T00:00:49.798Z,14.93
2023-09-11T00:03:16.979Z,15.88
2023-09-11T00:05:54.733Z,14.95
2023-09-11T00:08:30.870Z,14.52
2023-09-11T00:10:59.616Z,14.35
2023-09-11T00:13:27.724Z,15.63
2023-09-11T00:15:55.144Z,14.30
2023-09-11T00:18:22.295Z,14.52
2023-09-11T00:20:49.736Z,14.43
2023-09-11T00:23:17.087Z,14.55
2023-09-11T00:25:44.117Z,15.20
2023-09-11T00:28:11.354Z,14.77
2023-09-11T00:30:39.043Z,15.63
2023-09-11T00:33:06.477Z,15.95
2023-09-11T00:35:33.842Z,17.25
2023-09-11T00:38:01.204Z,15.60
2023-09-11T00:40:28.264Z,16.37
2023-09-11T00:42:55.554Z,16.40
2023-09-11T00:45:22.775Z,16.33
2023-09-11T00:47:50.051Z,16.40
2023-09-11T00:50:18.972Z,16.13
2023-09-11T00:52:50.363Z,14.23
2023-09-11T00:55:18.186Z,14.73
2023-09-11T00:57:45.409Z,15.50
2023-09-11T01:00:14.252Z,15.68
2023-09-11T01:02:41.612Z,16.27
2023-09-11T01:05:10.182Z,18.02
2023-09-11T01:15:05.457Z,17.00
2023-09-11T01:23:17.713Z,18.80
2023-09-11T01:26:15.166Z,17.97
2023-09-11T01:29:08.677Z,17.63
2023-09-11T01:31:38.147Z,17.93
2023-09-11T01:34:06.694Z,18.42
2023-09-11T01:36:33.972Z,18.20
2023-09-11T01:39:01.914Z,18.85
2023-09-11T01:41:34.868Z,17.33
2023-09-11T01:44:08.647Z,18.65
2023-09-11T01:46:36.004Z,18.77
2023-09-11T01:49:04.372Z,17.95
2023-09-11T01:51:33.095Z,18.30
2023-09-11T01:54:00.408Z,17.45
2023-09-11T01:56:27.955Z,17.33
2023-09-11T01:58:57.857Z,16.08
2023-09-11T02:01:24.996Z,16.13
2023-09-11T02:03:52.159Z,16.42
2023-09-11T02:06:19.308Z,16.58
2023-09-11T02:08:46.490Z,18.70
2023-09-11T02:11:13.565Z,17.13
2023-09-11T02:13:40.864Z,17.20
2023-09-11T02:16:08.052Z,18.27
2023-09-11T02:18:35.340Z,18.67
2023-09-11T02:21:02.309Z,19.63
2023-09-11T02:23:29.547Z,18.40
2023-09-11T02:25:57.394Z,19.27
2023-09-11T02:28:24.766Z,20.45
2023-09-11T02:30:51.777Z,19.88
2023-09-11T02:33:18.776Z,21.02
2023-09-11T02:35:54.186Z,21.27
2023-09-11T02:38:21.674Z,21.50
2023-09-11T02:40:59.113Z,20.80
2023-09-11T02:43:34.225Z,21.17
2023-09-11T02:46:01.148Z,20.57
2023-09-11T02:48:28.955Z,21.57
2023-09-11T02:50:56.248Z,21.05
2023-09-11T02:53:23.475Z,21.63
2023-09-11T02:55:52.809Z,22.00
2023-09-11T02:58:20.033Z,22.55
2023-09-11T03:00:46.913Z,24.17
2023-09-11T03:03:14.087Z,24.40
2023-09-11T03:05:41.291Z,23.60
2023-09-11T03:08:08.988Z,23.43
2023-09-11T03:10:36.209Z,24.67
2023-09-11T03:13:04.999Z,25.33
2023-09-11T03:15:32.281Z,24.70
2023-09-11T03:17:59.268Z,24.60
2023-09-11T03:20:26.408Z,25.90
2023-09-11T03:22:55.197Z,26.33
2023-09-11T03:25:22.337Z,26.10
2023-09-11T03:27:49.345Z,26.60
2023-09-11T03:30:16.487Z,26.43
2023-09-11T03:32:43.469Z,25.50
2023-09-11T03:35:10.961Z,25.50
2023-09-11T03:37:38.451Z,26.13
2023-09-11T03:40:08.976Z,25.50
2023-09-11T03:42:36.007Z,25.57
2023-09-11T03:45:03.120Z,26.00
2023-09-11T03:47:30.297Z,25.93
2023-09-11T03:49:57.301Z,26.57
2023-09-11T03:52:24.335Z,26.27
2023-09-11T03:54:51.276Z,26.90
2023-09-11T03:57:18.378Z,27.37
2023-09-11T03:59:45.513Z,26.83
2023-09-11T04:02:12.591Z,27.13
2023-09-11T04:04:39.659Z,28.20
2023-09-11T04:07:06.804Z,28.70
2023-09-11T04:09:34.487Z,26.87
2023-09-11T04:12:05.203Z,28.35
2023-09-11T04:14:32.274Z,28.57
2023-09-11T04:16:59.299Z,26.90
2023-09-11T04:19:26.341Z,26.10
2023-09-11T04:21:53.245Z,27.30
2023-09-11T04:24:20.387Z,25.07
2023-09-11T04:26:47.359Z,26.40
2023-09-11T04:29:14.420Z,26.73
2023-09-11T04:34:08.805Z,29.40
2023-09-11T04:36:36.385Z,26.93
2023-09-11T04:39:05.602Z,29.70
2023-09-11T04:41:32.785Z,27.07
2023-09-11T04:43:59.731Z,27.60
2023-09-11T04:46:26.728Z,29.10
2023-09-11T04:48:53.945Z,28.20
2023-09-11T04:51:20.898Z,28.10
2023-09-11T04:53:48.192Z,27.93
2023-09-11T04:56:15.608Z,31.07
2023-09-11T05:03:36.849Z,28.85
2023-09-11T05:06:04.029Z,29.73
2023-09-11T05:08:45.495Z,29.90
2023-09-11T05:11:18.086Z,30.17
2023-09-11T05:13:45.008Z,29.90
2023-09-11T05:16:12.367Z,29.57
2023-09-11T05:18:39.912Z,29.20
2023-09-11T05:21:09.199Z,28.47
2023-09-11T05:23:36.769Z,28.00
2023-09-11T05:26:04.554Z,28.87
2023-09-11T05:28:32.115Z,26.80
2023-09-11T05:30:59.113Z,26.43
2023-09-11T05:33:26.268Z,26.67
2023-09-11T05:35:53.398Z,27.73
2023-09-11T05:38:20.432Z,27.03
2023-09-11T05:40:47.345Z,24.93
2023-09-11T05:43:14.390Z,23.93
2023-09-11T05:45:41.473Z,24.27
2023-09-11T05:48:27.465Z,24.33
2023-09-11T05:50:58.462Z,23.87
2023-09-11T05:53:25.830Z,21.20
2023-09-11T05:58:21.076Z,19.60
2023-09-11T06:00:48.876Z,19.25
2023-09-11T06:03:15.950Z,19.35
2023-09-11T06:05:43.423Z,19.97
2023-09-11T06:08:10.482Z,18.70
2023-09-11T06:10:37.982Z,17.95
2023-09-11T06:13:05.442Z,17.75
2023-09-11T06:15:32.530Z,18.55
2023-09-11T06:17:59.744Z,16.17
2023-09-11T06:20:26.940Z,17.05
2023-09-11T06:22:54.579Z,16.40
2023-09-11T06:25:21.848Z,17.10
2023-09-11T06:27:48.891Z,16.83
2023-09-11T06:30:16.260Z,15.57
2023-09-11T06:32:43.813Z,17.52
2023-09-11T06:35:14.387Z,16.77
2023-09-11T06:37:41.974Z,15.88
2023-09-11T06:40:10.779Z,16.05
2023-09-11T06:42:38.199Z,17.55
2023-09-11T06:45:06.379Z,17.00
2023-09-11T06:47:34.103Z,16.90
2023-09-11T06:50:01.390Z,16.00
2023-09-11T06:52:28.324Z,16.08
2023-09-11T06:54:56.076Z,14.80
2023-09-11T06:57:23.997Z,15.15
2023-09-11T06:59:52.641Z,15.35
2023-09-11T07:02:19.697Z,14.50
2023-09-11T07:04:46.699Z,14.50
2023-09-11T07:07:13.839Z,13.30
2023-09-11T07:09:40.864Z,14.32
2023-09-11T07:12:08.138Z,14.75
2023-09-11T07:14:35.421Z,16.70
2023-09-11T07:17:04.372Z,15.65
2023-09-11T07:19:31.323Z,15.32
2023-09-11T07:21:58.334Z,15.38
2023-09-11T07:24:25.416Z,15.32
2023-09-11T07:26:52.533Z,15.02
2023-09-11T07:29:19.580Z,15.95
2023-09-11T07:31:47.859Z,16.20
2023-09-11T07:34:15.807Z,16.02
2023-09-11T07:36:42.879Z,14.77
2023-09-11T07:39:10.953Z,14.68
2023-09-11T07:41:38.094Z,15.27
2023-09-11T07:44:05.265Z,14.73
2023-09-11T07:46:32.360Z,14.65
2023-09-11T07:49:00.392Z,13.98
2023-09-11T07:51:27.867Z,15.10
